Time;durP1;ratioP1;P1;durP2;ratioP2;P2;SDS_P1;SDS_P2;PMS_P1;PMS_P2;Temp;Humidity;BMP_temperature;BMP_pressure;BME280_temperature;BME280_humidity;BME280_pressure;Samples;Min_cycle;Max_cycle;Signal;HPM_P1;HPM_P2
2023/02/03 00:03:13;;;;;;;5.18;1.10;;;;;;;10.07;64.10;101356.69;10222237;28;20059;-64
2023/02/03 00:08:17;;;;;;;4.80;0.80;;;;;;;9.95;64.59;101333.66;10223678;28;20059;-64
2023/02/03 00:13:18;;;;;;;7.78;0.90;;;;;;;10.01;64.45;101317.00;10217855;28;20047;-65
2023/02/03 00:18:20;;;;;;;2.88;1.17;;;;;;;9.97;64.50;101312.88;10222506;28;20139;-64
2023/02/03 00:23:21;;;;;;;6.05;1.00;;;;;;;10.01;64.30;101330.41;10222310;28;20083;-66
2023/02/03 00:28:23;;;;;;;2.33;0.75;;;;;;;10.06;64.68;101332.66;10220299;28;20071;-64
2023/02/03 00:33:24;;;;;;;4.60;0.70;;;;;;;10.12;64.68;101356.22;10222747;28;20056;-64
2023/02/03 00:38:27;;;;;;;4.65;1.13;;;;;;;10.16;64.49;101351.41;10225927;28;20135;-63
2023/02/03 00:43:28;;;;;;;2.97;0.98;;;;;;;10.18;64.52;101352.94;10221742;28;20103;-65
2023/02/03 00:48:29;;;;;;;3.08;1.20;;;;;;;10.18;64.58;101344.88;10220362;28;20134;-66
2023/02/03 00:53:31;;;;;;;5.10;0.60;;;;;;;10.18;64.78;101322.56;10213913;28;20073;-65
2023/02/03 00:58:33;;;;;;;3.90;0.80;;;;;;;10.15;64.98;101287.91;10226315;28;20103;-65
2023/02/03 01:03:34;;;;;;;2.78;0.47;;;;;;;10.06;64.98;101260.97;10222833;28;20076;-65
2023/02/03 01:08:35;;;;;;;4.10;0.80;;;;;;;10.03;65.07;101290.81;10219751;28;20155;-64
2023/02/03 01:13:37;;;;;;;3.25;0.70;;;;;;;10.03;65.35;101315.00;10217332;28;20075;-64
2023/02/03 01:18:40;;;;;;;3.05;0.57;;;;;;;10.05;65.32;101296.91;10223056;28;20516;-64
2023/02/03 01:23:42;;;;;;;3.28;0.73;;;;;;;10.07;65.66;101297.59;10217424;28;20134;-64
2023/02/03 01:28:49;;;;;;;5.32;0.80;;;;;;;10.12;65.46;101287.22;10213006;28;20769;-66
2023/02/03 01:33:53;;;;;;;2.73;0.70;;;;;;;10.10;65.62;101283.84;10217972;28;20147;-66
2023/02/03 01:38:54;;;;;;;3.80;0.95;;;;;;;10.15;65.73;101279.84;10220212;28;20070;-65
2023/02/03 01:43:58;;;;;;;4.25;0.70;;;;;;;10.13;65.75;101283.56;10223548;28;20090;-66
2023/02/03 01:49:13;;;;;;;2.13;0.70;;;;;;;10.10;65.93;101286.53;10222358;28;20059;-63
2023/02/03 01:54:19;;;;;;;2.33;0.63;;;;;;;10.15;65.92;101279.84;10215554;28;20067;-66
2023/02/03 01:59:23;;;;;;;4.03;0.85;;;;;;;10.13;66.03;101285.41;10218661;28;20075;-65
2023/02/03 02:04:30;;;;;;;3.38;0.65;;;;;;;10.17;65.92;101267.13;10219787;28;20470;-65
2023/02/03 02:09:32;;;;;;;6.07;0.80;;;;;;;10.13;66.55;101262.06;10218190;28;20131;-66
2023/02/03 02:14:33;;;;;;;4.97;0.80;;;;;;;10.16;65.90;101254.69;10216348;28;20075;-66
2023/02/03 02:19:50;;;;;;;3.63;0.60;;;;;;;10.16;66.19;101265.44;10220741;28;20055;-66
2023/02/03 02:25:29;;;;;;;3.25;0.70;;;;;;;10.09;66.44;101276.78;10220282;28;20127;-66
2023/02/03 02:31:05;;;;;;;2.80;0.68;;;;;;;10.04;66.70;101284.44;10220153;28;20162;-66
2023/02/03 02:36:28;;;;;;;2.78;0.47;;;;;;;10.01;67.00;101270.47;10217590;28;20066;-64
2023/02/03 02:41:45;;;;;;;1.52;0.57;;;;;;;10.02;67.07;101289.13;10214511;28;20043;-66
2023/02/03 02:46:52;;;;;;;3.00;0.55;;;;;;;10.05;66.76;101294.22;10219294;28;20750;-64
2023/02/03 02:51:55;;;;;;;3.17;0.53;;;;;;;10.05;67.25;101299.56;10214565;28;20126;-65
2023/02/03 02:57:01;;;;;;;1.27;0.40;;;;;;;10.03;67.35;101308.75;10214824;28;20130;-66
2023/02/03 03:02:02;;;;;;;3.17;0.60;;;;;;;10.04;67.51;101299.72;10199688;28;20155;-66
2023/02/03 03:07:15;;;;;;;2.20;0.50;;;;;;;10.11;67.32;101285.53;10216113;28;20577;-66
2023/02/03 03:12:47;;;;;;;3.00;0.50;;;;;;;10.13;67.45;101288.09;10221637;28;20134;-64
2023/02/03 03:18:03;;;;;;;3.28;0.55;;;;;;;10.05;67.77;101306.78;10221649;28;20075;-63
2023/02/03 03:23:08;;;;;;;1.95;0.40;;;;;;;10.05;67.98;101310.31;10227504;28;20134;-66
2023/02/03 03:28:25;;;;;;;1.52;0.50;;;;;;;10.00;68.36;101303.69;10227294;28;20210;-64
2023/02/03 03:33:26;;;;;;;2.60;0.50;;;;;;;9.95;68.59;101261.16;10224507;28;20550;-65
2023/02/03 03:38:36;;;;;;;1.38;0.35;;;;;;;9.87;69.17;101250.31;10226252;28;20305;-64
2023/02/03 03:43:41;;;;;;;3.58;0.40;;;;;;;9.91;68.92;101231.09;10227431;28;20151;-65
2023/02/03 03:48:54;;;;;;;3.33;0.40;;;;;;;9.90;68.87;101271.50;10219165;28;20143;-66
2023/02/03 03:54:00;;;;;;;2.05;0.85;;;;;;;9.90;69.06;101271.50;10216616;28;20162;-66
2023/02/03 03:59:06;;;;;;;1.75;0.30;;;;;;;9.89;69.12;101241.13;10224415;28;20736;-66
2023/02/03 04:04:09;;;;;;;1.10;0.22;;;;;;;9.89;69.09;101230.41;10222898;28;20075;-63
2023/02/03 04:09:11;;;;;;;2.15;0.30;;;;;;;9.96;69.00;101244.06;10225193;28;20287;-67
2023/02/03 04:14:12;;;;;;;2.28;0.32;;;;;;;9.99;68.74;101264.41;10222619;28;20547;-66
2023/02/03 04:19:13;;;;;;;0.38;0.20;;;;;;;10.04;68.71;101289.81;10223442;28;20130;-65
2023/02/03 04:24:15;;;;;;;0.50;0.25;;;;;;;10.06;68.63;101287.81;10221918;28;20165;-65
2023/02/03 04:29:16;;;;;;;1.27;0.40;;;;;;;10.04;68.54;101254.06;10223595;28;20143;-65
2023/02/03 04:34:18;;;;;;;0.75;0.30;;;;;;;10.07;68.57;101277.91;10218531;28;20464;-66
2023/02/03 04:39:19;;;;;;;2.85;0.40;;;;;;;10.10;68.75;101316.06;10218475;28;20072;-66
2023/02/03 04:44:20;;;;;;;0.82;0.43;;;;;;;9.98;69.15;101322.66;10219920;28;20134;-64
2023/02/03 04:49:22;;;;;;;1.25;0.40;;;;;;;9.80;69.60;101302.94;10223403;28;20143;-62
2023/02/03 04:54:23;;;;;;;1.25;0.45;;;;;;;9.68;70.11;101291.53;10221011;28;20062;-64
2023/02/03 04:59:24;;;;;;;1.80;0.68;;;;;;;9.49;70.66;101268.28;10218204;28;20128;-64
2023/02/03 05:04:26;;;;;;;0.75;0.50;;;;;;;9.42;70.84;101283.25;10220450;28;20074;-63
2023/02/03 05:09:27;;;;;;;1.20;0.50;;;;;;;9.39;70.91;101262.09;10220922;28;20139;-61
2023/02/03 05:14:28;;;;;;;1.92;0.60;;;;;;;9.40;70.94;101247.69;10223025;28;20138;-64
2023/02/03 05:19:30;;;;;;;1.20;0.50;;;;;;;9.39;71.42;101238.78;10218778;28;20131;-62
2023/02/03 05:24:31;;;;;;;8.45;0.80;;;;;;;9.41;71.53;101230.59;10219773;28;20072;-62
2023/02/03 05:29:32;;;;;;;1.00;0.50;;;;;;;9.41;71.11;101228.75;10218366;28;20143;-63
2023/02/03 05:34:34;;;;;;;3.70;0.95;;;;;;;9.43;71.45;101215.19;10213672;28;20127;-60
2023/02/03 05:39:35;;;;;;;3.45;0.47;;;;;;;9.49;71.19;101211.91;10215785;28;20146;-64
2023/02/03 05:44:36;;;;;;;5.25;0.60;;;;;;;9.49;71.18;101220.81;10218243;28;20841;-63
2023/02/03 05:49:38;;;;;;;6.43;0.50;;;;;;;9.53;71.33;101232.09;10219141;28;20058;-64
2023/02/03 05:54:39;;;;;;;1.88;0.50;;;;;;;9.63;70.96;101235.59;10218877;28;20044;-64
2023/02/03 05:59:41;;;;;;;2.17;0.75;;;;;;;9.68;71.05;101256.63;10217794;28;20063;-63
2023/02/03 06:04:42;;;;;;;2.92;0.43;;;;;;;9.69;70.81;101239.53;10216854;28;20142;-65
2023/02/03 06:09:44;;;;;;;1.17;0.40;;;;;;;9.72;70.76;101232.03;10219617;28;20051;-67
2023/02/03 06:14:45;;;;;;;1.65;0.60;;;;;;;9.72;70.89;101221.28;10214844;28;20075;-65
2023/02/03 06:19:46;;;;;;;0.55;0.40;;;;;;;9.78;70.62;101214.47;10224393;28;20063;-66
2023/02/03 06:24:48;;;;;;;0.88;0.38;;;;;;;9.75;70.61;101216.63;10218531;28;20074;-63
2023/02/03 06:29:49;;;;;;;10.30;1.58;;;;;;;9.77;70.56;101210.09;10218782;28;20051;-62
2023/02/03 06:34:50;;;;;;;1.98;0.40;;;;;;;9.77;70.40;101226.19;10270965;28;20044;-62
2023/02/03 06:39:52;;;;;;;8.05;0.52;;;;;;;9.79;70.43;101221.53;10263749;28;20036;-62
2023/02/03 06:44:53;;;;;;;2.38;0.52;;;;;;;9.88;70.20;101234.06;10266017;28;20044;-62
2023/02/03 06:49:55;;;;;;;0.80;0.40;;;;;;;9.93;69.95;101230.91;10273380;28;20043;-62
2023/02/03 06:54:56;;;;;;;2.40;0.65;;;;;;;9.98;69.73;101228.63;10274878;28;20055;-63
2023/02/03 06:59:58;;;;;;;4.18;0.60;;;;;;;10.02;69.52;101226.50;10268420;28;20047;-64
2023/02/03 07:04:59;;;;;;;2.20;0.50;;;;;;;10.05;69.45;101219.00;10281554;28;20031;-63
2023/02/03 07:10:01;;;;;;;1.20;0.52;;;;;;;10.15;68.87;101224.31;10259554;28;20039;-62
2023/02/03 07:15:03;;;;;;;4.10;0.60;;;;;;;10.17;68.93;101229.50;10258059;28;20050;-63
2023/02/03 07:20:05;;;;;;;3.92;0.55;;;;;;;10.20;68.61;101224.69;10275906;28;20058;-63
2023/02/03 07:25:07;;;;;;;4.22;0.47;;;;;;;10.22;68.69;101211.09;10274740;28;20080;-63
2023/02/03 07:30:09;;;;;;;2.38;0.55;;;;;;;10.21;68.67;101204.88;10277282;28;20044;-63
2023/02/03 07:35:10;;;;;;;1.50;0.57;;;;;;;10.24;68.47;101252.09;10278222;28;20051;-63
2023/02/03 07:40:13;;;;;;;0.90;0.50;;;;;;;10.20;68.45;101250.72;10280844;28;20035;-64
2023/02/03 07:45:16;;;;;;;4.53;0.50;;;;;;;10.19;68.63;101249.00;10277738;28;20035;-64
2023/02/03 07:50:18;;;;;;;1.08;0.52;;;;;;;10.30;68.07;101244.28;10276387;28;20047;-64
2023/02/03 07:55:19;;;;;;;1.80;0.60;;;;;;;10.36;67.87;101256.28;10277488;28;20075;-64
2023/02/03 08:00:21;;;;;;;2.45;1.15;;;;;;;10.29;67.98;101253.34;10275179;28;20051;-64
2023/02/03 08:05:22;;;;;;;1.85;0.30;;;;;;;10.37;67.49;101249.06;10274492;28;20043;-64
2023/02/03 08:10:24;;;;;;;1.02;0.40;;;;;;;10.32;67.70;101231.53;10283021;28;20046;-64
2023/02/03 08:15:25;;;;;;;1.48;0.57;;;;;;;10.44;67.08;101236.69;10276048;28;20051;-65
2023/02/03 08:20:26;;;;;;;0.85;0.35;;;;;;;10.51;66.89;101238.63;10279088;28;20377;-64
2023/02/03 08:25:28;;;;;;;3.38;0.43;;;;;;;10.61;66.43;101224.28;10274064;28;20066;-64
2023/02/03 08:30:30;;;;;;;3.15;1.00;;;;;;;10.58;66.51;101222.72;10275361;28;20039;-64
2023/02/03 08:35:32;;;;;;;2.75;0.75;;;;;;;10.69;66.13;101243.16;10277579;28;20051;-64
2023/02/03 08:40:33;;;;;;;1.58;0.40;;;;;;;10.69;65.85;101229.72;10276011;28;20038;-64
2023/02/03 08:45:35;;;;;;;2.58;0.40;;;;;;;10.74;65.54;101219.31;10273734;28;20039;-64
2023/02/03 08:50:36;;;;;;;2.55;0.40;;;;;;;10.85;65.01;101221.78;10277185;28;20031;-63
2023/02/03 08:55:39;;;;;;;1.63;0.30;;;;;;;10.90;64.62;101199.81;10271282;28;20055;-64
2023/02/03 09:00:40;;;;;;;2.78;0.22;;;;;;;10.93;64.63;101182.50;10276247;28;20040;-64
2023/02/03 09:05:42;;;;;;;2.55;0.25;;;;;;;11.03;63.90;101194.00;10273529;28;20040;-64
2023/02/03 09:10:43;;;;;;;0.32;0.22;;;;;;;11.02;63.76;101216.50;10270365;28;20063;-64
2023/02/03 09:15:44;;;;;;;2.40;0.30;;;;;;;11.02;63.38;101200.34;10268914;28;20040;-63
2023/02/03 09:20:46;;;;;;;1.63;0.20;;;;;;;11.15;63.08;101233.09;10267918;28;20072;-62
2023/02/03 09:25:47;;;;;;;3.33;0.30;;;;;;;11.17;62.33;101214.94;10255822;28;20071;-63
2023/02/03 09:30:49;;;;;;;0.75;0.22;;;;;;;11.21;62.18;101205.53;10263889;28;20054;-63
2023/02/03 09:35:55;;;;;;;1.45;0.20;;;;;;;11.34;62.32;101204.28;10263288;28;20106;-62
2023/02/03 09:41:09;;;;;;;2.45;0.30;;;;;;;11.44;61.99;101202.31;10261941;28;20680;-62
2023/02/03 09:46:20;;;;;;;2.47;0.25;;;;;;;11.45;61.50;101209.38;10256619;28;20039;-61
2023/02/03 09:51:28;;;;;;;1.95;0.38;;;;;;;11.50;61.58;101193.59;10257696;28;20150;-61
2023/02/03 09:56:31;;;;;;;;;;;;;;;11.54;61.76;101188.72;10259228;28;20056;-62
2023/02/03 10:01:40;;;;;;;1.75;0.52;;;;;;;11.59;61.13;101210.59;10250971;28;19926;-61
2023/02/03 10:06:46;;;;;;;2.28;0.47;;;;;;;11.55;60.71;101193.94;10251851;28;20078;-61
2023/02/03 10:12:12;;;;;;;2.20;0.30;;;;;;;11.69;60.45;101174.47;10252992;28;20043;-63
2023/02/03 10:17:32;;;;;;;2.17;0.40;;;;;;;11.75;60.79;101183.75;10263190;28;20035;-62
2023/02/03 10:22:39;;;;;;;0.73;0.20;;;;;;;11.76;60.14;101193.50;10259339;28;20071;-62
2023/02/03 10:27:42;;;;;;;;;;;;;;;11.77;60.32;101175.50;10246679;28;20107;-62
2023/02/03 10:32:43;;;;;;;0.73;0.22;;;;;;;11.85;60.41;101199.78;10265767;28;19954;-62
2023/02/03 10:37:52;;;;;;;5.00;0.20;;;;;;;11.83;59.92;101197.25;10262914;28;20035;-62
2023/02/03 10:48:16;;;;;;;0.77;0.20;;;;;;;11.75;59.57;101204.44;10262369;28;20055;-61
2023/02/03 10:53:31;;;;;;;1.42;0.38;;;;;;;11.71;60.06;101204.78;10258034;28;20048;-62
2023/02/03 10:58:33;;;;;;;0.25;0.20;;;;;;;11.73;59.75;101188.47;10266438;28;20083;-61
2023/02/03 11:03:35;;;;;;;1.52;0.30;;;;;;;11.84;59.88;101169.28;10264814;28;20105;-62
2023/02/03 11:08:39;;;;;;;0.75;0.20;;;;;;;11.78;59.99;101161.03;10247934;28;20071;-61
2023/02/03 11:13:41;;;;;;;0.52;0.20;;;;;;;11.80;60.35;101161.72;10253289;28;20407;-62
2023/02/03 11:18:52;;;;;;;1.25;0.20;;;;;;;11.73;60.52;101166.06;10262216;28;20059;-62
2023/02/03 11:23:56;;;;;;;1.10;0.20;;;;;;;11.68;61.41;101163.88;10249979;28;20059;-62
2023/02/03 11:29:00;;;;;;;1.70;0.20;;;;;;;11.66;61.54;101182.03;10251068;28;20052;-62
2023/02/03 11:34:15;;;;;;;0.65;0.20;;;;;;;11.64;61.58;101187.59;10250173;28;20119;-62
2023/02/03 11:39:24;;;;;;;2.90;0.20;;;;;;;11.62;61.86;101189.59;10259327;28;20047;-63
2023/02/03 11:44:32;;;;;;;0.70;0.20;;;;;;;11.83;61.65;101191.03;10264390;28;20185;-64
2023/02/03 11:49:46;;;;;;;0.55;0.20;;;;;;;11.59;61.84;101172.91;10253023;28;20122;-63
2023/02/03 11:55:07;;;;;;;0.88;0.30;;;;;;;11.58;62.16;101163.16;10243335;28;20048;-63
2023/02/03 12:00:36;;;;;;;2.67;0.20;;;;;;;11.60;62.35;101143.13;10248376;28;20056;-62
2023/02/03 12:06:05;;;;;;;1.02;0.20;;;;;;;11.66;62.75;101130.88;10244926;28;20066;-63
2023/02/03 12:11:13;;;;;;;3.22;0.22;;;;;;;11.68;62.54;101123.47;10245978;28;20059;-63
2023/02/03 12:16:50;;;;;;;1.52;0.20;;;;;;;11.67;62.87;101109.16;10245508;28;20059;-63
2023/02/03 12:22:22;;;;;;;0.22;0.13;;;;;;;11.66;62.87;101104.78;10244122;28;20692;-61
2023/02/03 12:28:00;;;;;;;1.95;0.20;;;;;;;11.67;63.08;101114.56;10242250;28;20051;-61
2023/02/03 12:33:11;;;;;;;1.77;0.20;;;;;;;11.39;64.33;101110.41;10235702;28;20053;-61
2023/02/03 12:38:39;;;;;;;0.95;0.20;;;;;;;11.21;65.19;101140.09;10251413;28;20062;-61
2023/02/03 12:43:51;;;;;;;0.95;0.30;;;;;;;11.05;65.62;101154.31;10249535;28;20082;-62
2023/02/03 12:49:08;;;;;;;0.25;0.20;;;;;;;11.05;65.64;101144.38;10253820;28;20145;-60
2023/02/03 12:54:49;;;;;;;0.93;0.63;;;;;;;11.00;66.42;101138.66;10262261;28;20047;-62
2023/02/03 13:00:18;;;;;;;1.92;0.40;;;;;;;10.87;67.10;101128.31;10253300;28;20115;-62
2023/02/03 13:05:27;;;;;;;2.58;0.63;;;;;;;10.72;67.83;101108.38;10227218;29;20048;-60
2023/02/03 13:10:38;;;;;;;2.85;0.30;;;;;;;10.56;68.78;101102.91;10244591;28;20059;-61
2023/02/03 13:15:44;;;;;;;1.33;0.35;;;;;;;10.51;69.04;101088.09;10240912;28;20051;-62
2023/02/03 13:20:45;;;;;;;1.73;0.70;;;;;;;10.49;69.48;101095.47;10234583;28;20138;-62
2023/02/03 13:26:05;;;;;;;2.50;0.50;;;;;;;10.42;69.90;101105.16;10237528;28;20059;-62
2023/02/03 13:31:20;;;;;;;2.50;0.45;;;;;;;10.37;70.44;101118.22;10238201;28;20047;-63
2023/02/03 13:36:38;;;;;;;2.95;0.40;;;;;;;10.49;70.32;101114.28;10235857;28;20072;-61
2023/02/03 13:41:52;;;;;;;1.17;0.25;;;;;;;10.49;70.56;101103.53;10237520;28;20062;-62
2023/02/03 13:46:56;;;;;;;2.17;0.47;;;;;;;10.45;70.98;101109.38;10241119;28;20070;-63
2023/02/03 13:51:58;;;;;;;1.75;0.40;;;;;;;10.42;71.54;101102.47;10239486;28;20055;-61
2023/02/03 13:57:02;;;;;;;4.68;0.70;;;;;;;10.48;71.57;101083.00;10238109;28;20058;-62
2023/02/03 14:02:22;;;;;;;1.67;0.63;;;;;;;10.51;71.41;101090.78;10238049;28;20055;-61
2023/02/03 14:07:33;;;;;;;5.18;0.60;;;;;;;10.65;71.49;101110.03;10234307;28;20186;-60
2023/02/03 14:12:37;;;;;;;4.57;0.60;;;;;;;10.69;71.33;101120.31;10227597;28;20078;-61
2023/02/03 14:17:41;;;;;;;4.25;0.47;;;;;;;10.68;71.58;101117.75;10232074;28;20047;-60
2023/02/03 14:22:43;;;;;;;1.80;0.40;;;;;;;10.64;72.15;101128.03;10230365;28;20047;-60
2023/02/03 14:27:44;;;;;;;2.15;0.40;;;;;;;10.67;72.10;101130.38;10239049;28;20053;-60
2023/02/03 14:32:52;;;;;;;1.13;0.30;;;;;;;10.75;72.10;101136.81;10228137;28;23136;-61
2023/02/03 14:38:07;;;;;;;1.10;0.45;;;;;;;10.78;72.10;101128.41;10232168;28;20127;-60
2023/02/03 14:43:27;;;;;;;3.03;0.80;;;;;;;10.68;72.62;101125.84;10228641;28;20491;-64
2023/02/03 14:48:38;;;;;;;4.75;0.80;;;;;;;10.68;72.78;101112.38;10231405;28;20059;-60
2023/02/03 14:54:05;;;;;;;5.50;2.15;;;;;;;10.74;72.79;101119.81;10235566;28;20047;-62
2023/02/03 14:59:09;;;;;;;1.55;0.40;;;;;;;10.84;73.09;101138.53;10234090;28;20495;-61
2023/02/03 15:04:10;;;;;;;3.60;0.55;;;;;;;10.87;72.38;101160.59;10228741;28;20055;-60
2023/02/03 15:09:29;;;;;;;2.25;0.50;;;;;;;10.85;72.89;101159.91;10233931;28;20143;-62
2023/02/03 15:14:30;;;;;;;3.60;0.50;;;;;;;10.93;72.98;101161.81;10236139;28;20056;-62
2023/02/03 15:19:38;;;;;;;2.38;0.60;;;;;;;11.01;72.67;101169.09;10238825;28;20056;-62
2023/02/03 15:24:39;;;;;;;6.93;1.40;;;;;;;10.98;72.81;101174.78;10235019;28;20522;-61
2023/02/03 15:29:41;;;;;;;2.45;1.35;;;;;;;11.00;72.84;101180.84;10241951;28;20071;-60
2023/02/03 15:34:47;;;;;;;3.08;1.00;;;;;;;11.12;72.75;101190.38;10234076;28;20114;-61
2023/02/03 15:40:04;;;;;;;1.90;1.00;;;;;;;11.09;72.85;101187.97;10216606;28;20055;-61
2023/02/03 15:45:19;;;;;;;4.68;1.50;;;;;;;11.05;72.81;101173.16;10222681;28;20090;-62
2023/02/03 15:50:29;;;;;;;1.45;0.90;;;;;;;11.02;73.12;101176.16;10222318;28;20843;-61
2023/02/03 15:55:47;;;;;;;2.55;1.10;;;;;;;11.08;73.16;101191.69;10205373;28;20110;-59
2023/02/03 16:00:52;;;;;;;4.57;1.20;;;;;;;11.11;72.89;101185.97;10220707;28;20134;-60
2023/02/03 16:05:54;;;;;;;2.90;0.90;;;;;;;11.15;72.68;101173.03;10219791;28;20138;-60
2023/02/03 16:10:55;;;;;;;2.55;0.70;;;;;;;11.10;72.64;101178.91;10217875;28;20083;-60
2023/02/03 16:16:04;;;;;;;2.35;0.70;;;;;;;11.17;72.05;101185.31;10214827;28;20051;-62
2023/02/03 16:21:28;;;;;;;2.63;0.68;;;;;;;11.27;71.87;101204.88;10217176;28;20111;-59
2023/02/03 16:26:31;;;;;;;2.10;0.70;;;;;;;11.18;71.96;101200.47;10217768;28;20114;-60
2023/02/03 16:53:29;;;;;;;1.55;0.88;;;;;;;11.44;70.04;101213.06;10213622;28;20082;-62
2023/02/03 16:58:30;;;;;;;1.95;0.70;;;;;;;11.46;69.82;101211.06;10218159;28;20146;-61
2023/02/03 17:03:33;;;;;;;3.70;1.20;;;;;;;11.46;69.84;101206.53;10217381;28;20167;-64
2023/02/03 17:08:39;;;;;;;1.95;0.70;;;;;;;11.43;69.52;101216.75;10215827;28;20428;-60
2023/02/03 17:13:41;;;;;;;2.40;0.82;;;;;;;11.42;69.97;101221.31;10219733;28;20052;-63
2023/02/03 17:18:44;;;;;;;3.80;0.95;;;;;;;11.49;69.28;101226.88;10217521;28;20142;-63
2023/02/03 17:23:46;;;;;;;2.15;0.90;;;;;;;11.56;68.98;101244.09;10215209;28;20051;-62
2023/02/03 17:28:47;;;;;;;3.35;1.63;;;;;;;11.60;68.62;101250.84;10218845;28;20048;-64
2023/02/03 17:33:50;;;;;;;1.95;1.20;;;;;;;11.56;68.96;101245.97;10198394;28;20067;-64
2023/02/03 17:38:57;;;;;;;5.22;0.80;;;;;;;11.45;69.06;101269.47;10217200;28;20082;-64
2023/02/03 17:44:16;;;;;;;2.80;0.98;;;;;;;11.34;69.69;101277.78;10215571;28;20052;-62
2023/02/03 17:49:35;;;;;;;3.53;1.25;;;;;;;11.30;69.02;101287.19;10214244;28;20230;-62
2023/02/03 17:54:54;;;;;;;5.55;0.98;;;;;;;11.38;68.11;101286.41;10217732;28;20135;-64
2023/02/03 17:59:58;;;;;;;9.57;0.90;;;;;;;11.30;64.94;101281.81;10211877;28;20146;-63
2023/02/03 18:04:59;;;;;;;4.53;0.77;;;;;;;11.34;64.32;101287.72;10211653;28;20047;-62
2023/02/03 18:10:00;;;;;;;4.15;0.80;;;;;;;11.28;62.84;101275.75;10204054;28;20078;-63
2023/02/03 18:15:02;;;;;;;5.85;0.82;;;;;;;11.35;62.54;101284.00;10211801;28;20138;-65
2023/02/03 18:20:04;;;;;;;5.15;0.55;;;;;;;11.35;61.01;101275.94;10219064;28;20520;-64
2023/02/03 18:25:05;;;;;;;8.52;0.60;;;;;;;11.40;59.87;101270.94;10215133;28;20043;-64
2023/02/03 18:30:10;;;;;;;9.05;0.80;;;;;;;11.31;57.99;101289.72;10212912;28;20155;-63
2023/02/03 18:35:15;;;;;;;9.57;0.70;;;;;;;11.45;58.27;101295.53;10217266;28;20071;-62
2023/02/03 18:40:17;;;;;;;8.57;0.63;;;;;;;11.47;57.88;101302.47;10217689;28;20063;-61
2023/02/03 18:45:18;;;;;;;6.82;0.98;;;;;;;11.49;57.08;101311.22;10224010;28;20074;-61
2023/02/03 18:50:20;;;;;;;8.07;0.68;;;;;;;11.50;56.74;101317.44;10230032;28;20146;-64
2023/02/03 18:55:22;;;;;;;10.25;1.50;;;;;;;11.47;54.59;101333.91;10231917;28;20142;-62
2023/02/03 19:00:23;;;;;;;13.27;1.20;;;;;;;11.59;55.22;101348.81;10227968;28;20094;-63
2023/02/03 19:05:25;;;;;;;10.23;1.02;;;;;;;11.66;54.72;101354.41;10225241;28;20829;-61
2023/02/03 19:10:26;;;;;;;12.63;1.73;;;;;;;11.70;55.17;101353.09;10233499;28;20141;-63
2023/02/03 19:15:28;;;;;;;5.72;1.00;;;;;;;11.62;54.94;101345.78;10231151;28;20059;-61
2023/02/03 19:20:30;;;;;;;11.35;0.95;;;;;;;11.52;55.49;101361.22;10226570;28;20067;-61
2023/02/03 19:25:31;;;;;;;6.25;0.82;;;;;;;11.54;55.27;101369.97;10226083;28;20051;-62
2023/02/03 19:30:34;;;;;;;11.35;1.48;;;;;;;11.54;55.68;101367.28;10228821;28;20713;-63
2023/02/03 19:35:35;;;;;;;10.32;1.38;;;;;;;11.60;56.13;101358.56;10223982;28;20127;-62
2023/02/03 19:40:37;;;;;;;16.55;2.03;;;;;;;11.55;56.48;101384.28;10229856;28;20093;-65
2023/02/03 19:45:38;;;;;;;10.85;1.42;;;;;;;11.37;57.00;101381.63;10225204;28;20066;-62
2023/02/03 19:50:44;;;;;;;13.05;1.67;;;;;;;11.15;57.83;101396.41;10220761;28;20075;-64
2023/02/03 19:55:45;;;;;;;13.13;2.83;;;;;;;11.05;58.03;101404.53;10221349;28;20082;-64
2023/02/03 20:00:47;;;;;;;13.82;2.17;;;;;;;11.17;58.00;101418.63;10228167;28;20083;-63
2023/02/03 20:05:51;;;;;;;11.30;2.13;;;;;;;11.21;58.50;101430.75;10221472;28;20057;-64
2023/02/03 20:10:53;;;;;;;10.60;1.23;;;;;;;11.09;58.66;101419.38;10222020;28;20371;-64
2023/02/03 20:15:54;;;;;;;17.15;1.73;;;;;;;11.04;59.45;101427.09;10224268;28;20055;-64
2023/02/03 20:20:56;;;;;;;11.07;1.52;;;;;;;10.90;59.60;101415.00;10227667;28;20110;-65
2023/02/03 20:25:58;;;;;;;10.70;1.33;;;;;;;10.83;59.92;101425.50;10222273;28;20103;-65
2023/02/03 20:31:00;;;;;;;9.43;1.38;;;;;;;10.81;59.99;101427.50;10222619;28;20094;-64
2023/02/03 20:36:02;;;;;;;12.80;2.15;;;;;;;10.67;60.40;101425.31;10218944;28;20538;-64
2023/02/03 20:41:09;;;;;;;17.02;4.05;;;;;;;10.75;60.00;101435.31;10209076;28;20048;-62
2023/02/03 20:46:16;;;;;;;10.85;2.85;;;;;;;10.66;60.39;101427.16;10222289;28;20082;-62
2023/02/03 20:51:19;;;;;;;10.73;2.58;;;;;;;10.65;60.30;101438.91;10214945;28;20053;-63
2023/02/03 20:56:21;;;;;;;16.92;2.67;;;;;;;10.73;60.34;101426.56;10222688;28;20059;-65
2023/02/03 21:01:23;;;;;;;8.88;2.13;;;;;;;10.78;60.15;101446.63;10235864;28;20059;-63
2023/02/03 21:06:26;;;;;;;23.00;1.63;;;;;;;10.67;60.36;101439.59;10241477;28;20059;-62
2023/02/03 21:11:29;;;;;;;7.32;1.60;;;;;;;10.71;60.18;101437.47;10229410;28;20059;-64
2023/02/03 21:16:35;;;;;;;14.05;2.33;;;;;;;10.76;60.05;101443.22;10220645;28;20067;-63
2023/02/03 21:21:40;;;;;;;13.38;1.35;;;;;;;10.79;59.70;101451.00;10240359;28;20110;-62
2023/02/03 21:26:42;;;;;;;7.25;1.95;;;;;;;10.65;59.81;101451.50;10236153;28;20051;-65
2023/02/03 21:31:43;;;;;;;11.27;1.48;;;;;;;10.62;59.59;101466.09;10242110;28;20052;-66
2023/02/03 21:36:45;;;;;;;11.90;1.98;;;;;;;10.64;59.55;101474.00;10231123;28;20047;-61
2023/02/03 21:41:46;;;;;;;9.88;1.17;;;;;;;10.66;59.18;101474.69;10231080;28;20051;-63
2023/02/03 21:46:48;;;;;;;9.77;1.48;;;;;;;10.58;59.13;101475.44;10243292;28;20262;-63
2023/02/03 21:51:49;;;;;;;11.23;1.10;;;;;;;10.60;59.43;101499.50;10217309;28;20062;-66
2023/02/03 21:56:52;;;;;;;12.77;2.10;;;;;;;10.58;59.41;101504.19;10251920;28;20169;-61
2023/02/03 22:01:57;;;;;;;9.95;1.52;;;;;;;10.52;59.40;101497.53;10263110;28;20063;-65
2023/02/03 22:06:58;;;;;;;5.57;1.60;;;;;;;10.42;59.50;101502.94;10251241;28;20052;-65
2023/02/03 22:12:00;;;;;;;13.95;1.40;;;;;;;10.49;59.28;101517.50;10240429;28;20051;-64
2023/02/03 22:17:01;;;;;;;12.73;1.45;;;;;;;10.32;59.50;101510.22;10242953;28;20047;-63
2023/02/03 22:22:03;;;;;;;12.60;1.83;;;;;;;10.36;59.42;101521.53;10228619;28;20052;-63
2023/02/03 22:27:05;;;;;;;13.02;1.70;;;;;;;10.35;59.33;101550.25;10228212;28;20581;-64
2023/02/03 22:32:06;;;;;;;11.45;2.50;;;;;;;10.46;59.10;101547.38;10227261;28;20044;-65
2023/02/03 22:37:07;;;;;;;10.10;1.30;;;;;;;10.37;59.12;101568.88;10216452;28;20138;-63
2023/02/03 22:42:09;;;;;;;15.93;1.98;;;;;;;10.38;58.89;101568.75;10222688;28;20142;-64
2023/02/03 22:47:10;;;;;;;14.35;2.13;;;;;;;10.35;59.13;101578.94;10221785;28;20051;-64
2023/02/03 22:52:12;;;;;;;17.25;1.60;;;;;;;10.44;58.94;101602.28;10233874;28;20430;-63
2023/02/03 22:57:13;;;;;;;13.77;1.40;;;;;;;10.39;58.81;101594.66;10239757;28;20052;-61
2023/02/03 23:02:15;;;;;;;12.77;2.28;;;;;;;10.40;58.88;101601.72;10251864;28;20067;-61
2023/02/03 23:07:17;;;;;;;12.55;1.70;;;;;;;10.30;59.02;101588.28;10240788;28;20058;-61
2023/02/03 23:12:18;;;;;;;16.08;2.10;;;;;;;10.25;59.39;101603.97;10231651;28;20062;-62
2023/02/03 23:17:20;;;;;;;11.57;1.55;;;;;;;10.30;58.88;101600.88;10223850;28;20075;-65
2023/02/03 23:22:21;;;;;;;14.40;1.70;;;;;;;10.30;58.82;101600.88;10229230;28;20059;-63
2023/02/03 23:27:23;;;;;;;12.55;1.90;;;;;;;10.30;59.02;101623.22;10230221;28;20086;-64
2023/02/03 23:32:24;;;;;;;14.25;2.47;;;;;;;10.40;58.80;101622.38;10241238;28;20051;-64
2023/02/03 23:37:25;;;;;;;13.50;2.53;;;;;;;10.55;58.60;101630.84;10252426;28;20044;-62
2023/02/03 23:42:27;;;;;;;12.60;2.30;;;;;;;10.54;58.64;101639.91;10220704;28;1014965;-64
2023/02/03 23:47:28;;;;;;;12.85;1.48;;;;;;;10.57;58.51;101650.38;10238260;28;20319;-64
2023/02/03 23:52:34;;;;;;;10.48;1.42;;;;;;;10.41;58.75;101648.28;10232083;28;20662;-62